Terminal Aerodrome Forecast
Issued by NWS

Home | Current Version | Previous Version | Text Only | Print | Product List | Glossary On
Versions: 1 2 3 4 5 6 7 8 9 10 11 12 13 14 15 16 17 18 19 20 21 22
000
FTUS45 KFGZ 201900 AAA
TAFPRC
TAF AMD
KPRC 201922Z 2019/2118 VRB05KT P6SM SCT060
     FM202000 22007KT P6SM VCTS SCT060CB
      TEMPO 2020/2023 VRB10G20KT SCT060CB BKN100
     FM210000 22008KT P6SM SCT050 BKN100
     FM210300 VRB03KT P6SM FEW090=

USA.gov is the U.S. government's official web portal to all federal, state and local government web resources and services.